Time;durP1;ratioP1;P1;durP2;ratioP2;P2;SDS_P1;SDS_P2;PMS_P1;PMS_P2;Temp;Humidity;BMP_temperature;BMP_pressure;BME280_temperature;BME280_humidity;BME280_pressure;Samples;Min_cycle;Max_cycle;Signal;HPM_P1;HPM_P2
2023/08/11 00:00:26;;;;;;;10.77;6.05;;;;;;;;;;4981470;28;20041;-78
2023/08/11 00:02:52;;;;;;;10.07;5.85;;;;;;;;;;4980674;28;20038;-79
2023/08/11 00:05:20;;;;;;;11.80;6.38;;;;;;;;;;4961107;28;20038;-77
2023/08/11 00:07:50;;;;;;;12.75;6.30;;;;;;;;;;4961886;28;20044;-78
2023/08/11 00:10:16;;;;;;;10.40;6.30;;;;;;;;;;4978977;28;20043;-77
2023/08/11 00:12:42;;;;;;;11.68;6.72;;;;;;;;;;4979777;28;20061;-77
2023/08/11 00:15:08;;;;;;;10.18;6.18;;;;;;;;;;4965346;28;20542;-77
2023/08/11 00:17:34;;;;;;;12.27;6.38;;;;;;;;;;4980218;28;20037;-77
2023/08/11 00:20:00;;;;;;;12.38;6.15;;;;;;;;;;4978101;28;20042;-77
2023/08/11 00:22:26;;;;;;;12.98;6.30;;;;;;;;;;4979007;28;20038;-76
2023/08/11 00:24:52;;;;;;;11.50;6.28;;;;;;;;;;4979335;28;20027;-77
2023/08/11 00:27:19;;;;;;;13.15;6.47;;;;;;;;;;4979857;28;20046;-77
2023/08/11 00:29:45;;;;;;;8.63;5.47;;;;;;;;;;4980780;28;20034;-76
2023/08/11 00:32:11;;;;;;;13.68;6.50;;;;;;;;;;4979136;28;20049;-75
2023/08/11 00:34:37;;;;;;;8.95;6.13;;;;;;;;;;4977296;28;20363;-79
2023/08/11 00:37:04;;;;;;;12.23;5.70;;;;;;;;;;4981830;28;20038;-77
2023/08/11 00:39:30;;;;;;;9.35;6.28;;;;;;;;;;4977257;28;20872;-77
2023/08/11 00:42:00;;;;;;;12.20;6.22;;;;;;;;;;4962265;28;20067;-79
2023/08/11 00:44:29;;;;;;;8.68;5.68;;;;;;;;;;4977648;28;20038;-79
2023/08/11 00:46:55;;;;;;;12.20;6.18;;;;;;;;;;4978175;28;20120;-78
2023/08/11 00:49:20;;;;;;;11.98;5.70;;;;;;;;;;4977004;28;20092;-78
2023/08/11 00:51:47;;;;;;;9.35;5.35;;;;;;;;;;4967156;28;20034;-76
2023/08/11 00:54:13;;;;;;;9.32;6.00;;;;;;;;;;4981922;28;20042;-78
2023/08/11 00:56:44;;;;;;;10.40;4.40;;;;;;;;;;4976953;28;20176;-77
2023/08/11 00:59:12;;;;;;;6.32;3.97;;;;;;;;;;4962511;28;20446;-75
2023/08/11 01:01:40;;;;;;;10.25;4.50;;;;;;;;;;4977627;28;20380;-78
2023/08/11 01:04:07;;;;;;;11.20;3.95;;;;;;;;;;4978268;28;20066;-78
2023/08/11 01:06:46;;;;;;;5.72;3.97;;;;;;;;;;4978683;28;20360;-79
2023/08/11 01:09:13;;;;;;;7.07;3.83;;;;;;;;;;4981262;28;20031;-78
2023/08/11 01:11:43;;;;;;;8.93;4.30;;;;;;;;;;4982474;28;20042;-78
2023/08/11 01:14:18;;;;;;;6.28;3.20;;;;;;;;;;4987119;28;20056;-78
2023/08/11 01:16:49;;;;;;;6.03;3.10;;;;;;;;;;4984824;28;20371;-78
2023/08/11 01:19:24;;;;;;;9.40;3.45;;;;;;;;;;4987258;28;20026;-78
2023/08/11 01:21:51;;;;;;;5.55;3.35;;;;;;;;;;4984327;28;20034;-79
2023/08/11 01:24:17;;;;;;;6.70;3.08;;;;;;;;;;4982261;28;20041;-78
2023/08/11 01:26:44;;;;;;;4.38;2.83;;;;;;;;;;4983413;28;20058;-78
2023/08/11 01:29:12;;;;;;;3.50;3.00;;;;;;;;;;4983711;28;20038;-78
2023/08/11 01:31:41;;;;;;;5.75;3.67;;;;;;;;;;4981519;28;20074;-78
2023/08/11 01:34:07;;;;;;;7.22;3.30;;;;;;;;;;4982375;28;20062;-79
2023/08/11 01:36:33;;;;;;;5.80;2.83;;;;;;;;;;4981649;28;20058;-78
2023/08/11 01:38:59;;;;;;;7.57;2.97;;;;;;;;;;4981972;28;20133;-79
2023/08/11 01:41:25;;;;;;;5.40;3.03;;;;;;;;;;4969414;28;20045;-78
2023/08/11 01:43:52;;;;;;;5.15;2.75;;;;;;;;;;4983766;28;20038;-78
2023/08/11 01:46:18;;;;;;;5.10;3.00;;;;;;;;;;4980892;28;20193;-76
2023/08/11 01:48:44;;;;;;;7.00;3.40;;;;;;;;;;4983009;28;20065;-79
2023/08/11 01:51:13;;;;;;;6.75;3.17;;;;;;;;;;4982865;28;20034;-79
2023/08/11 01:53:39;;;;;;;7.00;2.95;;;;;;;;;;4983798;28;20042;-78
2023/08/11 01:56:05;;;;;;;9.20;2.78;;;;;;;;;;4982866;28;20038;-79
2023/08/11 01:58:36;;;;;;;7.13;3.22;;;;;;;;;;4982016;28;20046;-77
2023/08/11 02:01:02;;;;;;;12.70;3.30;;;;;;;;;;4981568;28;20045;-79
2023/08/11 02:03:28;;;;;;;6.13;2.88;;;;;;;;;;4969102;28;20031;-76
2023/08/11 02:05:55;;;;;;;4.75;2.97;;;;;;;;;;4981360;28;20045;-76
2023/08/11 02:08:21;;;;;;;6.93;2.78;;;;;;;;;;4981491;28;20101;-79
2023/08/11 02:10:47;;;;;;;5.57;3.28;;;;;;;;;;4969724;28;20057;-79
2023/08/11 02:13:13;;;;;;;5.40;3.40;;;;;;;;;;4981531;28;20045;-78
2023/08/11 02:15:40;;;;;;;5.45;2.92;;;;;;;;;;4980856;28;20042;-79
2023/08/11 02:18:06;;;;;;;7.35;3.40;;;;;;;;;;4962938;28;20114;-78
2023/08/11 02:20:32;;;;;;;8.65;2.92;;;;;;;;;;4981620;28;20117;-77
2023/08/11 02:23:01;;;;;;;8.05;2.80;;;;;;;;;;4981950;28;20038;-77
2023/08/11 02:25:27;;;;;;;5.03;3.38;;;;;;;;;;4981122;28;20038;-79
2023/08/11 02:27:53;;;;;;;5.95;2.78;;;;;;;;;;4982934;28;20034;-77
2023/08/11 02:30:21;;;;;;;7.88;2.60;;;;;;;;;;4982081;28;20058;-78
2023/08/11 02:32:47;;;;;;;5.10;2.50;;;;;;;;;;4985337;28;20034;-75
2023/08/11 02:35:14;;;;;;;8.52;2.72;;;;;;;;;;4979857;28;20045;-78
2023/08/11 02:37:42;;;;;;;7.57;2.65;;;;;;;;;;4982456;28;20042;-77
2023/08/11 02:40:09;;;;;;;6.43;2.97;;;;;;;;;;4982082;28;20042;-77
2023/08/11 02:42:38;;;;;;;8.15;2.80;;;;;;;;;;4981542;28;20052;-76
2023/08/11 02:45:04;;;;;;;9.32;3.22;;;;;;;;;;4982575;28;20049;-79
2023/08/11 02:47:31;;;;;;;5.70;2.90;;;;;;;;;;4965055;28;20391;-78
2023/08/11 02:49:57;;;;;;;5.47;2.72;;;;;;;;;;4982483;28;20367;-78
2023/08/11 02:52:23;;;;;;;8.52;3.28;;;;;;;;;;4981090;28;20057;-78
2023/08/11 02:54:49;;;;;;;8.40;2.50;;;;;;;;;;4979601;28;20534;-79
2023/08/11 02:57:15;;;;;;;6.18;2.83;;;;;;;;;;4982429;28;20035;-77
2023/08/11 02:59:42;;;;;;;7.50;3.10;;;;;;;;;;4985019;28;20482;-77
2023/08/11 03:02:08;;;;;;;9.82;2.67;;;;;;;;;;4983497;28;20034;-78
2023/08/11 03:04:36;;;;;;;5.03;2.83;;;;;;;;;;4986377;28;20022;-78
2023/08/11 03:07:05;;;;;;;9.88;2.65;;;;;;;;;;4982192;28;20026;-78
2023/08/11 03:09:31;;;;;;;7.72;2.63;;;;;;;;;;4970237;28;20112;-76
2023/08/11 03:11:57;;;;;;;5.60;2.45;;;;;;;;;;4966061;28;20042;-76
2023/08/11 03:14:23;;;;;;;7.35;2.80;;;;;;;;;;4983053;28;20038;-79
2023/08/11 03:16:51;;;;;;;6.30;2.72;;;;;;;;;;4982003;28;20041;-78
2023/08/11 03:19:20;;;;;;;4.72;2.58;;;;;;;;;;4980568;28;20988;-78
2023/08/11 03:21:46;;;;;;;3.95;2.80;;;;;;;;;;4963046;28;20046;-77
2023/08/11 03:24:12;;;;;;;5.40;2.63;;;;;;;;;;4978580;28;20026;-79
2023/08/11 03:26:38;;;;;;;4.55;2.65;;;;;;;;;;4965174;28;20176;-78
2023/08/11 03:29:04;;;;;;;4.20;2.95;;;;;;;;;;4970850;28;20126;-76
2023/08/11 03:31:30;;;;;;;11.00;3.00;;;;;;;;;;4980444;28;20038;-78
2023/08/11 03:33:56;;;;;;;5.97;2.97;;;;;;;;;;4983290;28;20039;-76
2023/08/11 03:36:22;;;;;;;4.85;2.38;;;;;;;;;;4970313;28;20030;-77
2023/08/11 03:38:51;;;;;;;4.55;2.58;;;;;;;;;;4967836;28;20041;-79
2023/08/11 03:41:17;;;;;;;10.70;3.45;;;;;;;;;;4982530;28;20030;-77
2023/08/11 03:43:45;;;;;;;9.57;3.08;;;;;;;;;;4962670;28;20038;-79
2023/08/11 03:46:11;;;;;;;4.75;2.47;;;;;;;;;;4981879;28;20046;-77
2023/08/11 03:48:38;;;;;;;5.65;2.88;;;;;;;;;;4983694;28;20073;-77
2023/08/11 03:51:04;;;;;;;6.20;2.75;;;;;;;;;;4986983;28;20115;-78
2023/08/11 03:53:36;;;;;;;5.55;2.83;;;;;;;;;;4992367;28;20093;-76
2023/08/11 03:56:07;;;;;;;7.30;2.92;;;;;;;;;;4993416;28;20037;-78
2023/08/11 03:58:35;;;;;;;5.85;3.58;;;;;;;;;;4984961;28;20030;-77
2023/08/11 04:01:01;;;;;;;6.00;2.53;;;;;;;;;;4979671;28;20082;-77
2023/08/11 04:03:30;;;;;;;4.90;2.80;;;;;;;;;;4968094;28;20037;-77
2023/08/11 04:05:56;;;;;;;7.00;2.47;;;;;;;;;;4981399;28;20057;-79
2023/08/11 04:08:23;;;;;;;5.03;2.33;;;;;;;;;;4981477;28;20038;-75
2023/08/11 04:10:49;;;;;;;5.10;2.63;;;;;;;;;;4979624;28;20363;-78
2023/08/11 04:13:15;;;;;;;9.70;2.47;;;;;;;;;;4983322;28;20041;-78
2023/08/11 04:15:41;;;;;;;8.68;3.33;;;;;;;;;;4982061;28;20042;-78
2023/08/11 04:18:10;;;;;;;4.90;2.83;;;;;;;;;;4981971;28;20038;-79
2023/08/11 04:20:36;;;;;;;5.15;3.13;;;;;;;;;;4983302;28;20184;-76
2023/08/11 04:23:03;;;;;;;5.05;3.00;;;;;;;;;;4984101;28;21698;-79
2023/08/11 04:25:29;;;;;;;5.80;2.72;;;;;;;;;;4965310;28;20022;-79
2023/08/11 04:27:55;;;;;;;6.32;3.00;;;;;;;;;;4983637;28;20763;-78
2023/08/11 04:30:24;;;;;;;7.10;3.33;;;;;;;;;;4981499;28;20046;-76
2023/08/11 04:32:51;;;;;;;4.72;3.05;;;;;;;;;;4981024;28;20057;-78
2023/08/11 04:35:17;;;;;;;6.25;3.08;;;;;;;;;;4984937;28;20042;-79
2023/08/11 04:37:45;;;;;;;6.13;2.90;;;;;;;;;;4982592;28;20034;-78
2023/08/11 04:40:13;;;;;;;12.27;2.78;;;;;;;;;;4981634;28;20811;-79
2023/08/11 04:42:40;;;;;;;10.80;2.88;;;;;;;;;;4981919;28;20030;-77
2023/08/11 04:45:06;;;;;;;7.25;2.28;;;;;;;;;;4963823;28;20113;-78
2023/08/11 04:47:32;;;;;;;8.57;2.38;;;;;;;;;;4981319;28;20030;-76
2023/08/11 04:49:58;;;;;;;4.97;2.70;;;;;;;;;;4981254;28;20049;-78
2023/08/11 04:52:24;;;;;;;6.75;2.35;;;;;;;;;;4967988;28;20042;-73
2023/08/11 04:54:53;;;;;;;9.30;2.80;;;;;;;;;;4993725;28;20065;-78
2023/08/11 04:57:20;;;;;;;7.47;2.83;;;;;;;;;;5000899;28;20704;-79
2023/08/11 04:59:46;;;;;;;9.52;2.85;;;;;;;;;;4976575;28;20096;-74
2023/08/11 05:02:12;;;;;;;8.07;2.92;;;;;;;;;;4983599;28;20034;-77
2023/08/11 05:04:38;;;;;;;8.80;3.08;;;;;;;;;;4982204;28;20038;-76
2023/08/11 05:07:06;;;;;;;9.05;2.63;;;;;;;;;;4980562;28;20661;-79
2023/08/11 05:09:32;;;;;;;9.00;3.30;;;;;;;;;;4982950;28;20526;-77
2023/08/11 05:11:58;;;;;;;6.40;3.25;;;;;;;;;;4965946;28;20034;-79
2023/08/11 05:14:26;;;;;;;8.15;2.90;;;;;;;;;;4979049;28;20455;-77
2023/08/11 05:16:55;;;;;;;8.95;2.47;;;;;;;;;;4983051;28;20030;-77
2023/08/11 05:19:21;;;;;;;7.40;3.08;;;;;;;;;;4980667;28;20026;-78
2023/08/11 05:21:49;;;;;;;5.03;2.70;;;;;;;;;;4977929;28;20056;-78
2023/08/11 05:24:15;;;;;;;9.05;3.67;;;;;;;;;;4978371;28;20479;-78
2023/08/11 05:26:43;;;;;;;15.50;3.75;;;;;;;;;;4980052;28;20062;-78
2023/08/11 05:29:09;;;;;;;8.27;2.47;;;;;;;;;;4981084;28;20030;-78
2023/08/11 05:31:35;;;;;;;5.13;2.83;;;;;;;;;;4979924;28;21712;-79
2023/08/11 05:34:09;;;;;;;7.00;3.40;;;;;;;;;;4977697;28;20035;-79
2023/08/11 05:36:35;;;;;;;9.98;3.10;;;;;;;;;;4979972;28;20573;-77
2023/08/11 05:39:01;;;;;;;4.93;3.30;;;;;;;;;;4978998;28;20407;-77
2023/08/11 05:41:27;;;;;;;7.13;3.05;;;;;;;;;;4982156;28;20054;-78
2023/08/11 05:43:53;;;;;;;14.88;4.13;;;;;;;;;;4977228;28;20603;-78
2023/08/11 05:46:19;;;;;;;7.78;3.60;;;;;;;;;;4966583;28;20045;-77
2023/08/11 05:48:48;;;;;;;7.90;3.22;;;;;;;;;;4977348;28;20177;-76
2023/08/11 05:51:15;;;;;;;10.05;3.83;;;;;;;;;;4961397;28;20076;-77
2023/08/11 05:53:41;;;;;;;9.00;3.63;;;;;;;;;;4977022;28;20822;-77
2023/08/11 05:56:06;;;;;;;7.55;3.05;;;;;;;;;;4980586;28;20042;-77
2023/08/11 05:58:35;;;;;;;5.68;3.47;;;;;;;;;;4969471;28;20038;-78
2023/08/11 06:01:01;;;;;;;6.40;3.35;;;;;;;;;;4979579;28;20517;-76
2023/08/11 06:03:30;;;;;;;6.03;3.42;;;;;;;;;;4969075;28;20062;-77
2023/08/11 06:06:02;;;;;;;6.68;3.40;;;;;;;;;;4982927;28;20413;-77
2023/08/11 06:08:28;;;;;;;13.10;3.55;;;;;;;;;;4982398;28;20034;-78
2023/08/11 06:10:55;;;;;;;11.55;3.72;;;;;;;;;;4983745;28;20045;-78
2023/08/11 06:13:21;;;;;;;7.82;3.40;;;;;;;;;;4981436;28;20040;-77
2023/08/11 06:15:47;;;;;;;7.88;4.50;;;;;;;;;;4983116;28;20054;-77
2023/08/11 06:18:13;;;;;;;7.60;3.42;;;;;;;;;;4979408;28;20708;-78
2023/08/11 06:20:39;;;;;;;8.30;3.63;;;;;;;;;;4982398;28;20042;-79
2023/08/11 06:23:08;;;;;;;10.05;3.95;;;;;;;;;;4982349;28;20070;-78
2023/08/11 06:25:34;;;;;;;9.52;3.97;;;;;;;;;;4968777;28;20069;-81
2023/08/11 06:28:00;;;;;;;6.20;2.70;;;;;;;;;;4963617;28;20440;-79
2023/08/11 06:30:30;;;;;;;6.72;4.00;;;;;;;;;;4980718;28;20065;-79
2023/08/11 06:32:58;;;;;;;5.57;3.33;;;;;;;;;;4968455;28;20038;-79
2023/08/11 06:35:24;;;;;;;10.13;4.47;;;;;;;;;;4981294;28;20045;-78
2023/08/11 06:37:52;;;;;;;6.53;3.85;;;;;;;;;;4979235;28;20409;-79
2023/08/11 06:40:18;;;;;;;7.28;3.58;;;;;;;;;;4968314;28;20050;-76
2023/08/11 06:42:45;;;;;;;8.73;4.38;;;;;;;;;;4979499;28;20038;-78
2023/08/11 06:45:11;;;;;;;9.02;3.85;;;;;;;;;;4980226;28;20065;-80
2023/08/11 06:47:37;;;;;;;10.25;3.13;;;;;;;;;;4981227;28;20030;-77
2023/08/11 06:50:03;;;;;;;10.88;3.72;;;;;;;;;;4979033;28;20116;-79
2023/08/11 06:52:29;;;;;;;11.65;4.22;;;;;;;;;;4978700;28;20042;-79
2023/08/11 06:54:58;;;;;;;6.60;3.72;;;;;;;;;;4981056;28;20509;-79
2023/08/11 06:57:24;;;;;;;7.28;3.42;;;;;;;;;;4983069;28;21322;-80
2023/08/11 06:59:52;;;;;;;14.15;3.58;;;;;;;;;;4963669;28;20035;-79
2023/08/11 07:02:18;;;;;;;9.50;3.30;;;;;;;;;;4981853;28;20707;-82
2023/08/11 07:04:44;;;;;;;8.93;3.83;;;;;;;;;;4966246;28;20088;-82
2023/08/11 07:07:10;;;;;;;8.77;3.13;;;;;;;;;;4983413;28;20085;-78
2023/08/11 07:09:36;;;;;;;16.92;3.95;;;;;;;;;;4978916;28;20042;-81
2023/08/11 07:12:02;;;;;;;11.35;3.55;;;;;;;;;;4963863;28;20031;-80
2023/08/11 07:14:30;;;;;;;9.70;3.80;;;;;;;;;;4979021;28;20038;-81
2023/08/11 07:16:56;;;;;;;10.15;2.80;;;;;;;;;;4980521;28;20089;-81
2023/08/11 07:19:25;;;;;;;7.13;3.17;;;;;;;;;;4982166;28;20130;-79
2023/08/11 07:21:51;;;;;;;8.60;2.80;;;;;;;;;;4978797;28;20037;-79
2023/08/11 07:24:17;;;;;;;9.77;3.67;;;;;;;;;;4982190;28;20038;-77
2023/08/11 07:26:43;;;;;;;4.93;2.88;;;;;;;;;;4962909;28;20468;-79
2023/08/11 07:29:09;;;;;;;9.50;3.15;;;;;;;;;;4961440;28;20034;-77
2023/08/11 07:31:35;;;;;;;7.30;3.33;;;;;;;;;;4977479;28;20073;-79
2023/08/11 07:34:00;;;;;;;8.50;3.58;;;;;;;;;;4978503;28;20053;-82
2023/08/11 07:36:26;;;;;;;7.63;2.65;;;;;;;;;;4979731;28;20456;-81
2023/08/11 07:38:52;;;;;;;8.57;3.85;;;;;;;;;;4980288;28;20121;-82
2023/08/11 07:41:18;;;;;;;7.82;2.47;;;;;;;;;;4966974;28;20042;-80
2023/08/11 07:43:44;;;;;;;9.15;3.55;;;;;;;;;;4980236;28;20096;-79
2023/08/11 07:46:13;;;;;;;7.72;2.63;;;;;;;;;;4978087;28;21538;-80
2023/08/11 07:48:39;;;;;;;12.23;3.28;;;;;;;;;;4980304;28;20038;-79
2023/08/11 07:51:05;;;;;;;7.80;3.67;;;;;;;;;;4962413;28;20030;-80
2023/08/11 07:53:31;;;;;;;9.48;2.67;;;;;;;;;;4977677;28;20547;-79
2023/08/11 07:56:02;;;;;;;9.50;2.92;;;;;;;;;;4965780;28;20030;-79
2023/08/11 07:58:28;;;;;;;7.72;2.90;;;;;;;;;;4980382;28;20042;-79
2023/08/11 08:00:54;;;;;;;6.85;3.42;;;;;;;;;;4979132;28;20101;-83
2023/08/11 08:03:20;;;;;;;8.68;3.05;;;;;;;;;;4960428;28;20030;-82
2023/08/11 08:05:46;;;;;;;5.63;2.92;;;;;;;;;;4978190;28;20096;-79
2023/08/11 08:08:12;;;;;;;8.10;2.55;;;;;;;;;;4979392;28;20039;-81
2023/08/11 08:10:40;;;;;;;9.60;3.30;;;;;;;;;;4977102;28;20038;-81
2023/08/11 08:13:06;;;;;;;5.85;2.88;;;;;;;;;;4978887;28;20122;-81
2023/08/11 08:15:35;;;;;;;5.82;2.33;;;;;;;;;;4978129;28;20034;-80
2023/08/11 08:18:01;;;;;;;10.30;2.72;;;;;;;;;;4978189;28;20039;-83
2023/08/11 08:20:27;;;;;;;7.53;2.83;;;;;;;;;;4965615;28;20030;-82
2023/08/11 08:22:53;;;;;;;5.75;3.70;;;;;;;;;;4961110;28;20447;-83
2023/08/11 08:25:19;;;;;;;8.13;2.60;;;;;;;;;;4962401;28;20034;-80
2023/08/11 08:27:45;;;;;;;5.47;2.95;;;;;;;;;;4967002;28;20122;-82
2023/08/11 08:30:11;;;;;;;7.30;2.47;;;;;;;;;;4979394;28;20109;-80
2023/08/11 08:32:38;;;;;;;7.35;2.60;;;;;;;;;;4976608;28;20062;-80
2023/08/11 08:35:05;;;;;;;8.70;3.15;;;;;;;;;;4981140;28;20072;-84
2023/08/11 08:37:34;;;;;;;7.30;3.08;;;;;;;;;;4979621;28;20041;-80
2023/08/11 08:40:00;;;;;;;7.75;2.50;;;;;;;;;;4978869;28;20034;-83
2023/08/11 08:42:30;;;;;;;7.88;4.07;;;;;;;;;;5009881;23;20046;-78
2023/08/11 08:44:57;;;;;;;6.18;3.08;;;;;;;;;;5003555;28;20930;-79
2023/08/11 08:47:26;;;;;;;12.50;3.58;;;;;;;;;;5003583;28;20049;-80
2023/08/11 08:49:52;;;;;;;4.93;2.90;;;;;;;;;;5006410;28;20660;-83
2023/08/11 08:52:18;;;;;;;6.60;2.60;;;;;;;;;;5004250;28;20041;-78
2023/08/11 08:54:45;;;;;;;6.10;3.03;;;;;;;;;;5007072;28;20454;-81
2023/08/11 08:57:12;;;;;;;4.93;2.55;;;;;;;;;;5003068;28;20042;-80
2023/08/11 08:59:40;;;;;;;5.15;2.60;;;;;;;;;;4977843;28;20080;-84
2023/08/11 09:02:11;;;;;;;4.97;2.00;;;;;;;;;;4979360;28;20786;-80
2023/08/11 09:04:37;;;;;;;5.22;2.53;;;;;;;;;;5002844;28;20045;-78
2023/08/11 09:07:03;;;;;;;10.35;2.65;;;;;;;;;;5002791;28;20038;-80
2023/08/11 09:09:30;;;;;;;4.80;2.40;;;;;;;;;;4995266;28;20030;-83
2023/08/11 09:12:00;;;;;;;9.32;2.15;;;;;;;;;;4978871;28;20034;-83
2023/08/11 09:14:27;;;;;;;8.60;2.97;;;;;;;;;;4994671;28;20037;-82
2023/08/11 09:16:53;;;;;;;7.70;2.45;;;;;;;;;;4981127;28;20038;-83
2023/08/11 09:19:20;;;;;;;7.13;2.40;;;;;;;;;;4986536;28;20459;-77
2023/08/11 09:21:46;;;;;;;5.13;2.47;;;;;;;;;;4979015;28;20116;-78
2023/08/11 09:24:13;;;;;;;7.55;2.80;;;;;;;;;;5003775;28;20040;-80
2023/08/11 09:26:44;;;;;;;13.25;3.40;;;;;;;;;;4999642;28;20968;-79
2023/08/11 09:29:14;;;;;;;4.35;2.22;;;;;;;;;;4997173;28;20044;-79
2023/08/11 09:31:43;;;;;;;4.30;2.15;;;;;;;;;;5000734;28;20040;-81
2023/08/11 09:34:16;;;;;;;3.65;2.05;;;;;;;;;;5006603;28;20063;-81
2023/08/11 09:36:42;;;;;;;6.93;2.95;;;;;;;;;;4989658;28;20029;-82
2023/08/11 09:39:08;;;;;;;6.95;2.72;;;;;;;;;;5007190;28;20124;-80
2023/08/11 09:41:40;;;;;;;7.07;2.53;;;;;;;;;;5006986;28;20030;-78
2023/08/11 09:44:06;;;;;;;5.78;2.55;;;;;;;;;;5007397;28;20030;-81
2023/08/11 09:46:35;;;;;;;6.82;2.35;;;;;;;;;;4981637;28;20068;-80
2023/08/11 09:49:01;;;;;;;3.47;2.03;;;;;;;;;;5006880;28;20033;-80
2023/08/11 09:51:27;;;;;;;6.07;2.40;;;;;;;;;;4985067;28;20842;-83
2023/08/11 09:53:54;;;;;;;6.60;2.30;;;;;;;;;;5006038;28;20856;-78
2023/08/11 09:56:20;;;;;;;4.85;2.17;;;;;;;;;;4989527;28;20064;-81
2023/08/11 09:58:48;;;;;;;4.43;2.35;;;;;;;;;;5006857;28;20038;-84
2023/08/11 10:01:15;;;;;;;4.80;2.75;;;;;;;;;;5007012;28;20110;-83
2023/08/11 10:03:48;;;;;;;4.60;2.50;;;;;;;;;;5005869;28;20474;-81
2023/08/11 10:06:19;;;;;;;5.20;2.55;;;;;;;;;;5005063;28;20033;-83
2023/08/11 10:08:46;;;;;;;4.57;2.35;;;;;;;;;;4988472;28;20029;-80
2023/08/11 10:11:15;;;;;;;3.67;2.30;;;;;;;;;;4997509;28;20049;-78
2023/08/11 10:13:42;;;;;;;9.48;2.65;;;;;;;;;;5006697;28;20034;-83
2023/08/11 10:16:08;;;;;;;4.47;2.03;;;;;;;;;;4989230;28;20041;-83
2023/08/11 10:18:35;;;;;;;3.47;1.92;;;;;;;;;;5005984;28;20053;-83
2023/08/11 10:21:02;;;;;;;3.13;1.80;;;;;;;;;;5005939;28;20033;-83
2023/08/11 10:23:29;;;;;;;5.28;2.17;;;;;;;;;;5005576;28;20057;-81
2023/08/11 10:25:55;;;;;;;8.27;3.20;;;;;;;;;;4995886;28;20029;-78
2023/08/11 10:28:22;;;;;;;4.30;2.67;;;;;;;;;;5005705;28;20038;-80
2023/08/11 10:30:55;;;;;;;5.03;2.00;;;;;;;;;;5005158;28;20588;-81
2023/08/11 10:33:21;;;;;;;7.43;2.55;;;;;;;;;;5005829;28;20137;-82
2023/08/11 10:35:47;;;;;;;4.90;2.50;;;;;;;;;;4988446;28;20700;-81
2023/08/11 10:38:17;;;;;;;4.28;1.80;;;;;;;;;;4987927;28;20033;-77
2023/08/11 10:40:44;;;;;;;10.35;2.58;;;;;;;;;;4990331;28;20103;-79
2023/08/11 10:43:18;;;;;;;7.07;2.90;;;;;;;;;;5005017;28;20474;-80
2023/08/11 10:45:45;;;;;;;11.35;2.58;;;;;;;;;;4985659;28;20455;-82
2023/08/11 10:48:11;;;;;;;8.55;2.53;;;;;;;;;;4988471;28;20069;-82
2023/08/11 10:50:40;;;;;;;4.70;2.50;;;;;;;;;;5004692;28;20044;-79
2023/08/11 10:53:09;;;;;;;4.53;2.47;;;;;;;;;;5005549;28;20045;-83
2023/08/11 10:55:38;;;;;;;5.82;2.33;;;;;;;;;;4979983;28;20516;-79
2023/08/11 10:58:16;;;;;;;7.07;2.25;;;;;;;;;;5005215;28;20113;-80
2023/08/11 11:00:43;;;;;;;4.72;2.72;;;;;;;;;;4987690;28;20707;-81
2023/08/11 11:03:09;;;;;;;3.88;2.08;;;;;;;;;;5005303;28;20093;-80
2023/08/11 11:05:35;;;;;;;6.13;2.03;;;;;;;;;;5005711;28;20033;-82
2023/08/11 11:08:01;;;;;;;7.10;2.90;;;;;;;;;;5004160;28;20029;-83
2023/08/11 11:10:28;;;;;;;4.53;2.58;;;;;;;;;;5005044;28;20072;-82
2023/08/11 11:12:55;;;;;;;7.95;2.33;;;;;;;;;;5004712;28;20037;-82
2023/08/11 11:15:21;;;;;;;4.70;2.22;;;;;;;;;;5005410;28;20037;-81
2023/08/11 11:17:47;;;;;;;6.68;2.55;;;;;;;;;;4988125;28;20032;-81
2023/08/11 11:20:17;;;;;;;4.43;2.40;;;;;;;;;;4987710;28;20041;-84
2023/08/11 11:22:49;;;;;;;8.85;2.83;;;;;;;;;;4983339;28;20033;-80
2023/08/11 11:25:17;;;;;;;5.03;2.40;;;;;;;;;;5004156;28;20451;-79
2023/08/11 11:27:46;;;;;;;4.38;2.15;;;;;;;;;;4987330;28;20049;-79
2023/08/11 11:30:15;;;;;;;3.88;2.22;;;;;;;;;;5004335;28;20030;-78
2023/08/11 11:32:42;;;;;;;2.78;2.10;;;;;;;;;;5004899;28;20057;-82
2023/08/11 11:35:11;;;;;;;3.78;2.22;;;;;;;;;;5006291;28;21738;-81
2023/08/11 11:37:44;;;;;;;6.03;2.70;;;;;;;;;;5008206;28;20038;-77
2023/08/11 11:40:11;;;;;;;3.78;2.22;;;;;;;;;;5004177;28;20053;-77
2023/08/11 11:42:37;;;;;;;5.00;2.00;;;;;;;;;;5003541;28;20034;-79
2023/08/11 11:45:04;;;;;;;10.00;1.90;;;;;;;;;;5004583;28;20481;-79
2023/08/11 11:47:30;;;;;;;3.00;1.73;;;;;;;;;;4986699;28;20048;-78
2023/08/11 11:49:57;;;;;;;4.97;1.88;;;;;;;;;;5003905;28;20034;-80
2023/08/11 11:52:24;;;;;;;6.32;2.47;;;;;;;;;;5003872;28;20032;-81
2023/08/11 11:54:53;;;;;;;2.80;1.85;;;;;;;;;;5004070;28;20049;-80
2023/08/11 11:57:20;;;;;;;5.95;2.50;;;;;;;;;;5003697;28;20033;-79
2023/08/11 11:59:46;;;;;;;4.75;2.20;;;;;;;;;;5003474;28;20061;-81
2023/08/11 12:02:13;;;;;;;3.88;2.08;;;;;;;;;;4987299;28;20160;-82
2023/08/11 12:04:41;;;;;;;5.20;2.13;;;;;;;;;;5004012;28;20026;-84
2023/08/11 12:07:07;;;;;;;3.60;1.50;;;;;;;;;;4978966;28;20021;-80
2023/08/11 12:09:49;;;;;;;3.25;1.98;;;;;;;;;;5003666;28;20033;-84
2023/08/11 12:12:15;;;;;;;;;;;;;;;;;;4987582;28;20076;-84
2023/08/11 12:14:41;;;;;;;7.45;2.30;;;;;;;;;;5004393;28;19920;-81
2023/08/11 12:17:07;;;;;;;3.10;1.83;;;;;;;;;;4994541;28;20048;-81
2023/08/11 12:19:36;;;;;;;4.85;2.17;;;;;;;;;;5001944;28;20022;-81
2023/08/11 12:22:03;;;;;;;4.30;1.55;;;;;;;;;;4978205;28;20092;-80
2023/08/11 12:24:29;;;;;;;3.97;2.00;;;;;;;;;;5003553;28;20029;-83
2023/08/11 12:26:55;;;;;;;4.10;1.90;;;;;;;;;;4986117;28;20034;-83
2023/08/11 12:29:21;;;;;;;4.10;2.50;;;;;;;;;;4978483;28;20030;-83
2023/08/11 12:31:51;;;;;;;3.80;2.05;;;;;;;;;;5005518;28;20095;-81
2023/08/11 12:34:18;;;;;;;5.53;1.80;;;;;;;;;;5004931;28;20038;-79
2023/08/11 12:36:44;;;;;;;3.70;1.55;;;;;;;;;;5007024;28;20029;-83
2023/08/11 12:39:10;;;;;;;7.18;1.85;;;;;;;;;;5004230;28;20022;-83
2023/08/11 12:41:38;;;;;;;5.60;2.15;;;;;;;;;;4978352;28;20038;-81
2023/08/11 12:44:04;;;;;;;3.03;1.75;;;;;;;;;;5002412;28;20490;-84
2023/08/11 12:46:30;;;;;;;4.30;2.00;;;;;;;;;;4979035;28;20099;-82
2023/08/11 12:48:56;;;;;;;2.67;1.77;;;;;;;;;;4986794;28;20034;-82
2023/08/11 12:51:22;;;;;;;2.13;1.42;;;;;;;;;;5003523;28;20033;-83
2023/08/11 12:53:48;;;;;;;2.08;1.67;;;;;;;;;;5003311;28;20044;-81
2023/08/11 12:56:14;;;;;;;6.22;2.03;;;;;;;;;;5003383;28;20092;-83
2023/08/11 12:58:40;;;;;;;4.05;1.77;;;;;;;;;;4977662;28;20061;-82
2023/08/11 13:01:06;;;;;;;9.05;2.33;;;;;;;;;;5003674;28;20034;-84
2023/08/11 13:03:33;;;;;;;5.97;1.55;;;;;;;;;;4987152;28;20638;-84
2023/08/11 13:05:59;;;;;;;4.22;1.92;;;;;;;;;;5007922;28;20038;-83
2023/08/11 13:08:27;;;;;;;2.58;1.80;;;;;;;;;;4990410;28;20104;-82
2023/08/11 13:10:53;;;;;;;2.97;2.30;;;;;;;;;;5007750;28;20468;-83
2023/08/11 13:13:20;;;;;;;2.47;1.95;;;;;;;;;;5008269;28;20151;-82
2023/08/11 13:15:47;;;;;;;2.72;2.03;;;;;;;;;;4990401;28;20114;-80
2023/08/11 13:18:15;;;;;;;4.25;1.90;;;;;;;;;;4990796;28;20044;-84
2023/08/11 13:20:41;;;;;;;3.90;1.70;;;;;;;;;;4990067;28;20026;-84
2023/08/11 13:23:07;;;;;;;6.13;1.65;;;;;;;;;;5006513;28;20037;-82
2023/08/11 13:25:34;;;;;;;12.88;2.55;;;;;;;;;;5006274;28;20057;-83
2023/08/11 13:27:59;;;;;;;3.47;1.60;;;;;;;;;;4982817;28;20113;-84
2023/08/11 13:30:27;;;;;;;7.40;2.00;;;;;;;;;;5006929;28;20062;-82
2023/08/11 13:32:55;;;;;;;5.65;2.35;;;;;;;;;;5007134;28;20044;-83
2023/08/11 13:35:21;;;;;;;4.50;1.80;;;;;;;;;;5006741;28;20065;-83
2023/08/11 13:37:47;;;;;;;8.15;1.98;;;;;;;;;;5005638;28;20084;-84
2023/08/11 13:40:13;;;;;;;3.40;1.90;;;;;;;;;;5007039;28;20169;-84
2023/08/11 13:42:39;;;;;;;6.03;2.30;;;;;;;;;;4998285;28;20025;-80
2023/08/11 13:45:05;;;;;;;6.20;1.80;;;;;;;;;;5007398;28;20022;-83
2023/08/11 13:47:31;;;;;;;3.83;1.88;;;;;;;;;;4991846;28;20030;-83
2023/08/11 13:49:57;;;;;;;5.15;2.05;;;;;;;;;;4990018;28;20462;-79
2023/08/11 13:52:23;;;;;;;2.13;1.60;;;;;;;;;;4981524;28;20042;-82
2023/08/11 13:54:59;;;;;;;4.55;1.80;;;;;;;;;;5007121;28;20057;-84
2023/08/11 13:57:27;;;;;;;5.20;1.58;;;;;;;;;;5006669;28;20061;-84
2023/08/11 13:59:59;;;;;;;2.40;1.90;;;;;;;;;;5006822;28;20073;-85
2023/08/11 14:02:30;;;;;;;2.40;1.83;;;;;;;;;;5007172;28;20124;-81
2023/08/11 14:04:56;;;;;;;4.07;1.98;;;;;;;;;;4999560;28;20084;-84
2023/08/11 14:07:22;;;;;;;5.93;2.20;;;;;;;;;;5007357;28;20863;-81
2023/08/11 14:09:48;;;;;;;2.75;1.85;;;;;;;;;;5007356;28;20038;-84
2023/08/11 14:12:17;;;;;;;2.50;1.60;;;;;;;;;;4989854;28;20037;-84
2023/08/11 14:14:43;;;;;;;2.30;1.75;;;;;;;;;;4982770;28;20030;-82
2023/08/11 14:17:12;;;;;;;2.05;1.60;;;;;;;;;;5005393;28;20136;-82
2023/08/11 14:19:38;;;;;;;5.43;1.83;;;;;;;;;;5008470;28;20044;-84
2023/08/11 14:22:06;;;;;;;6.32;1.65;;;;;;;;;;5005497;28;20030;-83
2023/08/11 14:24:32;;;;;;;3.33;2.13;;;;;;;;;;5009573;28;20113;-86
2023/08/11 14:27:00;;;;;;;2.20;1.55;;;;;;;;;;5005076;28;20101;-83
2023/08/11 14:29:28;;;;;;;4.43;2.38;;;;;;;;;;4988829;28;20030;-85
2023/08/11 14:31:54;;;;;;;4.28;1.65;;;;;;;;;;5006959;28;20558;-84
2023/08/11 14:34:23;;;;;;;7.03;2.10;;;;;;;;;;5006768;28;20034;-84
2023/08/11 14:36:49;;;;;;;8.10;2.10;;;;;;;;;;4989438;28;20030;-80
2023/08/11 14:39:15;;;;;;;2.40;1.83;;;;;;;;;;4998067;28;20080;-85